Terminal Aerodrome Forecast
Issued by NWS Blacksburg, VA

Current Version | Previous Version | Graphics & Text | Print | Product List | Glossary On
Versions: 1 2 3 4 5 6 7 8 9 10 11 12 13 14 15 16 17 18 19 20 21 22 23 24 25 26 27 28 29 30 31 32 33 34 35
000
FTUS41 KRNK 310520
TAFBLF
TAF
KBLF 310520Z 3106/0106 18008KT P6SM SCT030 BKN100
     FM311700 24010KT P6SM VCSH SCT015 BKN080
     FM312000 22008KT 6SM -SHRA VCTS BKN045CB
     FM010000 21007KT 5SM -SHRA OVC035=

USA.gov is the U.S. government's official web portal to all federal, state and local government web resources and services.